RJA135 OJAI-LCLK
Flight info
| Callsign | RJA135 |
|---|---|
| Flight time | N/A |
| Altitude | 32000 |
| Route | MUVIN L53 TAPUZ W13 VELOX N131 EMEDA |
| Aircraft | A320/M-SDE3FGHIRWY/LB1 |
Departure
| Time | 2026-05-09 12:32 |
|---|---|
| Airport | Queen Alia International Airport (OJAI) |
Arrival
| Time | N/A |
|---|---|
| Airport | Larnaca International Airport (LCLK) |
| Time | Latitude | Longitude | Altitude | Speed | Heading |
|---|---|---|---|---|---|
| 2026-05-09 12:02 | 31.72539 | 35.98617 | 2409 ft | 0 kts | 351° |
| 2026-05-09 12:23 | 31.72535 | 35.98618 | 2410 ft | 2 kts | 351° |
| 2026-05-09 12:23 | 31.72518 | 35.98621 | 2410 ft | 2 kts | 353° |
| 2026-05-09 12:23 | 31.72502 | 35.98622 | 2408 ft | 2 kts | 1° |
| 2026-05-09 12:23 | 31.72486 | 35.98617 | 2410 ft | 2 kts | 65° |
| 2026-05-09 12:24 | 31.72483 | 35.98606 | 2408 ft | 1 kts | 82° |
| 2026-05-09 12:24 | 31.72483 | 35.98605 | 2408 ft | 0 kts | 82° |
| 2026-05-09 12:26 | 31.72484 | 35.98613 | 2408 ft | 2 kts | 82° |
| 2026-05-09 12:26 | 31.72487 | 35.98640 | 2409 ft | 4 kts | 81° |
| 2026-05-09 12:26 | 31.72494 | 35.98684 | 2409 ft | 7 kts | 79° |
| 2026-05-09 12:26 | 31.72503 | 35.98746 | 2409 ft | 9 kts | 81° |
| 2026-05-09 12:27 | 31.72514 | 35.98827 | 2409 ft | 11 kts | 81° |
| 2026-05-09 12:27 | 31.72535 | 35.98895 | 2409 ft | 6 kts | 37° |
| 2026-05-09 12:27 | 31.72578 | 35.98903 | 2411 ft | 7 kts | 352° |
| 2026-05-09 12:27 | 31.72633 | 35.98893 | 2409 ft | 9 kts | 350° |
| 2026-05-09 12:28 | 31.72665 | 35.98903 | 2410 ft | 3 kts | 44° |
| 2026-05-09 12:28 | 31.72682 | 35.98931 | 2409 ft | 5 kts | 68° |
| 2026-05-09 12:28 | 31.72694 | 35.98997 | 2410 ft | 12 kts | 79° |
| 2026-05-09 12:28 | 31.72713 | 35.99126 | 2411 ft | 20 kts | 80° |
| 2026-05-09 12:29 | 31.72741 | 35.99323 | 2409 ft | 28 kts | 79° |
| 2026-05-09 12:29 | 31.72777 | 35.99569 | 2409 ft | 32 kts | 80° |
| 2026-05-09 12:29 | 31.72817 | 35.99833 | 2409 ft | 33 kts | 80° |
| 2026-05-09 12:29 | 31.72855 | 36.00104 | 2410 ft | 34 kts | 80° |
| 2026-05-09 12:30 | 31.72895 | 36.00377 | 2409 ft | 34 kts | 80° |
| 2026-05-09 12:30 | 31.72930 | 36.00629 | 2409 ft | 22 kts | 80° |
| 2026-05-09 12:30 | 31.73030 | 36.00779 | 2411 ft | 11 kts | 348° |
| 2026-05-09 12:31 | 31.73114 | 36.00762 | 2410 ft | 13 kts | 352° |
| 2026-05-09 12:31 | 31.73212 | 36.00652 | 2408 ft | 10 kts | 262° |
| 2026-05-09 12:31 | 31.73206 | 36.00615 | 2407 ft | 0 kts | 260° |
| 2026-05-09 12:32 | 31.73192 | 36.00518 | 2408 ft | 46 kts | 260° |
| 2026-05-09 12:32 | 31.73093 | 35.99835 | 2410 ft | 121 kts | 260° |
| 2026-05-09 12:32 | 31.72925 | 35.98639 | 2532 ft | 167 kts | 261° |
| 2026-05-09 12:32 | 31.72745 | 35.97255 | 3066 ft | 174 kts | 261° |
| 2026-05-09 12:33 | 31.72560 | 35.95814 | 3601 ft | 184 kts | 262° |
| 2026-05-09 12:33 | 31.72272 | 35.94297 | 4183 ft | 195 kts | 259° |
| 2026-05-09 12:33 | 31.72007 | 35.92712 | 4850 ft | 201 kts | 260° |
| 2026-05-09 12:33 | 31.71746 | 35.91007 | 5219 ft | 224 kts | 261° |
| 2026-05-09 12:34 | 31.71790 | 35.89097 | 5576 ft | 247 kts | 284° |
| 2026-05-09 12:34 | 31.72322 | 35.87067 | 5908 ft | 272 kts | 288° |
| 2026-05-09 12:34 | 31.72970 | 35.84932 | 6499 ft | 282 kts | 288° |
| 2026-05-09 12:34 | 31.73635 | 35.82755 | 7308 ft | 284 kts | 287° |
| 2026-05-09 12:35 | 31.74288 | 35.80550 | 8125 ft | 287 kts | 287° |
| 2026-05-09 12:35 | 31.74932 | 35.78318 | 8902 ft | 290 kts | 286° |
| 2026-05-09 12:35 | 31.75573 | 35.76055 | 9735 ft | 293 kts | 285° |
| 2026-05-09 12:35 | 31.76219 | 35.73760 | 10369 ft | 303 kts | 285° |
| 2026-05-09 12:36 | 31.76903 | 35.71316 | 10613 ft | 326 kts | 285° |
| 2026-05-09 12:36 | 31.77631 | 35.68715 | 10936 ft | 342 kts | 285° |
| 2026-05-09 12:36 | 31.78377 | 35.66056 | 11676 ft | 343 kts | 286° |
| 2026-05-09 12:36 | 31.79127 | 35.63385 | 12470 ft | 345 kts | 286° |
| 2026-05-09 12:37 | 31.79878 | 35.60704 | 13229 ft | 347 kts | 286° |
| 2026-05-09 12:37 | 31.80633 | 35.58004 | 13980 ft | 348 kts | 287° |
| 2026-05-09 12:37 | 31.81382 | 35.55329 | 14625 ft | 350 kts | 287° |
| 2026-05-09 12:37 | 31.82134 | 35.52591 | 15279 ft | 352 kts | 286° |
| 2026-05-09 12:38 | 31.82843 | 35.49836 | 15924 ft | 354 kts | 285° |
| 2026-05-09 12:38 | 31.83611 | 35.47068 | 16555 ft | 357 kts | 288° |
| 2026-05-09 12:38 | 31.84446 | 35.44300 | 17184 ft | 360 kts | 288° |
| 2026-05-09 12:38 | 31.85298 | 35.41525 | 17806 ft | 362 kts | 288° |
| 2026-05-09 12:39 | 31.86153 | 35.38728 | 18383 ft | 365 kts | 288° |
| 2026-05-09 12:39 | 31.87004 | 35.35913 | 18900 ft | 367 kts | 288° |
| 2026-05-09 12:39 | 31.87856 | 35.33074 | 19443 ft | 369 kts | 288° |
| 2026-05-09 12:39 | 31.88712 | 35.30213 | 19976 ft | 371 kts | 288° |
| 2026-05-09 12:40 | 31.89569 | 35.27342 | 20516 ft | 373 kts | 288° |
| 2026-05-09 12:40 | 31.90428 | 35.24459 | 21063 ft | 375 kts | 288° |
| 2026-05-09 12:40 | 31.91281 | 35.21588 | 21566 ft | 377 kts | 288° |
| 2026-05-09 12:40 | 31.92156 | 35.18626 | 22116 ft | 379 kts | 288° |
| 2026-05-09 12:41 | 31.93023 | 35.15682 | 22639 ft | 382 kts | 288° |
| 2026-05-09 12:41 | 31.93884 | 35.12762 | 23171 ft | 384 kts | 288° |
| 2026-05-09 12:41 | 31.94774 | 35.09751 | 23672 ft | 386 kts | 288° |
| 2026-05-09 12:41 | 31.95661 | 35.06751 | 24119 ft | 388 kts | 288° |
| 2026-05-09 12:42 | 31.96547 | 35.03752 | 24567 ft | 389 kts | 288° |
| 2026-05-09 12:42 | 31.97436 | 35.00740 | 25001 ft | 390 kts | 288° |
| 2026-05-09 12:42 | 31.98316 | 34.97757 | 25441 ft | 391 kts | 288° |
| 2026-05-09 12:42 | 31.99219 | 34.94686 | 25865 ft | 393 kts | 288° |
| 2026-05-09 12:43 | 32.00107 | 34.91635 | 26259 ft | 394 kts | 286° |
| 2026-05-09 12:43 | 32.00827 | 34.88558 | 26649 ft | 395 kts | 282° |
| 2026-05-09 12:43 | 32.01338 | 34.85366 | 27025 ft | 396 kts | 278° |
| 2026-05-09 12:43 | 32.01630 | 34.82137 | 27401 ft | 398 kts | 274° |
| 2026-05-09 12:44 | 32.01799 | 34.78881 | 27752 ft | 399 kts | 274° |
| 2026-05-09 12:44 | 32.01978 | 34.75611 | 28108 ft | 401 kts | 274° |
| 2026-05-09 12:44 | 32.02297 | 34.72346 | 28435 ft | 402 kts | 282° |
| 2026-05-09 12:44 | 32.03237 | 34.69224 | 28732 ft | 406 kts | 295° |
| 2026-05-09 12:45 | 32.04796 | 34.66435 | 29023 ft | 412 kts | 308° |
| 2026-05-09 12:45 | 32.06902 | 34.64103 | 29291 ft | 420 kts | 318° |
| 2026-05-09 12:45 | 32.09277 | 34.62069 | 29559 ft | 423 kts | 321° |
| 2026-05-09 12:45 | 32.11700 | 34.60088 | 29855 ft | 425 kts | 321° |
| 2026-05-09 12:46 | 32.14123 | 34.58084 | 30133 ft | 426 kts | 320° |
| 2026-05-09 12:46 | 32.16535 | 34.56044 | 30372 ft | 427 kts | 320° |
| 2026-05-09 12:46 | 32.18935 | 34.53979 | 30622 ft | 428 kts | 320° |
| 2026-05-09 12:46 | 32.21350 | 34.51883 | 30865 ft | 430 kts | 319° |
| 2026-05-09 12:47 | 32.23761 | 34.49783 | 31127 ft | 431 kts | 319° |
| 2026-05-09 12:47 | 32.26175 | 34.47677 | 31469 ft | 430 kts | 319° |
| 2026-05-09 12:47 | 32.28574 | 34.45582 | 31799 ft | 429 kts | 319° |
| 2026-05-09 12:47 | 32.30969 | 34.43491 | 32021 ft | 427 kts | 319° |
| 2026-05-09 12:48 | 32.33353 | 34.41407 | 32015 ft | 426 kts | 319° |
| 2026-05-09 12:48 | 32.38082 | 34.37269 | 32013 ft | 426 kts | 319° |
| 2026-05-09 12:49 | 32.42843 | 34.33102 | 32017 ft | 425 kts | 319° |
| 2026-05-09 12:49 | 32.47592 | 34.28938 | 32017 ft | 425 kts | 319° |
| 2026-05-09 12:50 | 32.52458 | 34.24956 | 32018 ft | 429 kts | 327° |
| 2026-05-09 12:50 | 32.58160 | 34.22624 | 32015 ft | 442 kts | 345° |
| 2026-05-09 12:51 | 32.64329 | 34.21870 | 32014 ft | 446 kts | 349° |
| 2026-05-09 12:51 | 32.70499 | 34.21169 | 32019 ft | 446 kts | 348° |
| 2026-05-09 12:52 | 32.75674 | 34.20578 | 32030 ft | 446 kts | 348° |
| 2026-05-09 12:52 | 32.81846 | 34.19872 | 32027 ft | 446 kts | 348° |
| 2026-05-09 12:53 | 32.88026 | 34.19166 | 32039 ft | 446 kts | 348° |
| 2026-05-09 12:53 | 32.94164 | 34.18463 | 32037 ft | 446 kts | 348° |
| 2026-05-09 12:54 | 33.00350 | 34.17754 | 32038 ft | 446 kts | 348° |
| 2026-05-09 12:54 | 33.06523 | 34.17045 | 32042 ft | 446 kts | 348° |
| 2026-05-09 12:55 | 33.12695 | 34.16335 | 32039 ft | 445 kts | 348° |
| 2026-05-09 12:55 | 33.18862 | 34.15624 | 32039 ft | 445 kts | 348° |
| 2026-05-09 12:56 | 33.25024 | 34.14914 | 32041 ft | 445 kts | 348° |
| 2026-05-09 12:56 | 33.31180 | 34.14203 | 32037 ft | 444 kts | 348° |
| 2026-05-09 12:57 | 33.37324 | 34.13493 | 31533 ft | 444 kts | 348° |
| 2026-05-09 12:57 | 33.40417 | 34.13132 | 30642 ft | 449 kts | 348° |
| 2026-05-09 12:57 | 33.43559 | 34.12764 | 29511 ft | 456 kts | 349° |
| 2026-05-09 12:57 | 33.46710 | 34.12397 | 28734 ft | 454 kts | 349° |
| 2026-05-09 12:58 | 33.49824 | 34.12039 | 28243 ft | 444 kts | 349° |
| 2026-05-09 12:58 | 33.52872 | 34.11691 | 27877 ft | 432 kts | 349° |
| 2026-05-09 12:58 | 33.55843 | 34.11347 | 27305 ft | 427 kts | 349° |
| 2026-05-09 12:58 | 33.58785 | 34.11003 | 26738 ft | 421 kts | 349° |
| 2026-05-09 12:59 | 33.61682 | 34.10663 | 26175 ft | 417 kts | 349° |
| 2026-05-09 12:59 | 33.64557 | 34.10326 | 25622 ft | 412 kts | 349° |
| 2026-05-09 12:59 | 33.67367 | 34.09996 | 25073 ft | 409 kts | 349° |
| 2026-05-09 12:59 | 33.70186 | 34.09666 | 24521 ft | 405 kts | 350° |
| 2026-05-09 13:00 | 33.72983 | 34.09338 | 23982 ft | 402 kts | 350° |
| 2026-05-09 13:00 | 33.75762 | 34.09012 | 23383 ft | 400 kts | 350° |
| 2026-05-09 13:00 | 33.78511 | 34.08683 | 22820 ft | 394 kts | 349° |
| 2026-05-09 13:00 | 33.81217 | 34.08162 | 21966 ft | 395 kts | 344° |
| 2026-05-09 13:01 | 33.83872 | 34.07357 | 21346 ft | 390 kts | 340° |
| 2026-05-09 13:01 | 33.86419 | 34.06331 | 21024 ft | 383 kts | 337° |
| 2026-05-09 13:01 | 33.88941 | 34.05266 | 20759 ft | 386 kts | 337° |
| 2026-05-09 13:01 | 33.91495 | 34.04199 | 20186 ft | 391 kts | 337° |
| 2026-05-09 13:02 | 33.94067 | 34.03127 | 19663 ft | 387 kts | 338° |
| 2026-05-09 13:02 | 33.96580 | 34.02082 | 19181 ft | 375 kts | 337° |
| 2026-05-09 13:02 | 33.99042 | 34.01055 | 18692 ft | 372 kts | 337° |
| 2026-05-09 13:02 | 34.01473 | 34.00037 | 18184 ft | 369 kts | 337° |
| 2026-05-09 13:03 | 34.03881 | 33.99027 | 17668 ft | 364 kts | 338° |
| 2026-05-09 13:03 | 34.06255 | 33.98031 | 17182 ft | 358 kts | 338° |
| 2026-05-09 13:03 | 34.08591 | 33.97048 | 16698 ft | 353 kts | 338° |
| 2026-05-09 13:03 | 34.10898 | 33.96078 | 16220 ft | 349 kts | 338° |
| 2026-05-09 13:04 | 34.13179 | 33.95118 | 15747 ft | 345 kts | 338° |
| 2026-05-09 13:04 | 34.15441 | 33.94166 | 15279 ft | 342 kts | 338° |
| 2026-05-09 13:04 | 34.17677 | 33.93223 | 14815 ft | 339 kts | 338° |
| 2026-05-09 13:04 | 34.19864 | 33.92301 | 14361 ft | 336 kts | 338° |
| 2026-05-09 13:05 | 34.22060 | 33.91374 | 13901 ft | 333 kts | 338° |
| 2026-05-09 13:05 | 34.24244 | 33.90453 | 13418 ft | 330 kts | 339° |
| 2026-05-09 13:05 | 34.26400 | 33.89543 | 12974 ft | 326 kts | 339° |
| 2026-05-09 13:05 | 34.28534 | 33.88642 | 12530 ft | 323 kts | 339° |
| 2026-05-09 13:06 | 34.30638 | 33.87753 | 12096 ft | 319 kts | 339° |
| 2026-05-09 13:06 | 34.32738 | 33.86865 | 11667 ft | 319 kts | 339° |
| 2026-05-09 13:06 | 34.34824 | 33.85982 | 11230 ft | 318 kts | 339° |
| 2026-05-09 13:06 | 34.36906 | 33.85100 | 10797 ft | 315 kts | 339° |
| 2026-05-09 13:07 | 34.38967 | 33.84228 | 10411 ft | 311 kts | 339° |
| 2026-05-09 13:07 | 34.40969 | 33.83381 | 10289 ft | 298 kts | 339° |
| 2026-05-09 13:07 | 34.42886 | 33.82570 | 10103 ft | 288 kts | 339° |
| 2026-05-09 13:07 | 34.44775 | 33.81769 | 9918 ft | 288 kts | 339° |
| 2026-05-09 13:08 | 34.46669 | 33.80964 | 9782 ft | 288 kts | 340° |
| 2026-05-09 13:08 | 34.48590 | 33.80284 | 9536 ft | 289 kts | 348° |
| 2026-05-09 13:08 | 34.50583 | 33.79968 | 9089 ft | 290 kts | 353° |
| 2026-05-09 13:08 | 34.52593 | 33.79694 | 8677 ft | 289 kts | 352° |
| 2026-05-09 13:09 | 34.54571 | 33.79416 | 8338 ft | 284 kts | 352° |
| 2026-05-09 13:09 | 34.56524 | 33.79137 | 7963 ft | 281 kts | 352° |
| 2026-05-09 13:09 | 34.58458 | 33.78860 | 7593 ft | 278 kts | 352° |